.
WxDataArchive / Data Records for 2007-02-03
2007-02-02 February 2007 2007-02-04

Data Records for Saturday, 03 February 2007

Time	Temp	Chill	HIndex	Humid	Dewpt	 Wind 	HiWind	WindDir	Rain 	Barom 
-----	----	-----	------	-----	-----	------	------	-------	-----	----- 
00:00	6.0	6.0	6.0	59	-5.2	2	5	248	0.00	29.954 
00:05	5.8	5.8	5.8	59	-5.4	1	3	248	0.00	29.954 
00:10	5.8	5.8	5.8	59	-5.4	1	7	248	0.00	29.954 
00:15	5.8	5.8	5.8	59	-5.4	1	6	248	0.00	29.949 
00:20	5.8	5.8	5.8	59	-5.4	2	7	248	0.00	29.949 
00:25	5.8	5.8	5.8	59	-5.4	1	6	270	0.00	29.949 
00:30	5.8	5.8	5.8	59	-5.4	1	4	248	0.00	29.946 
00:35	5.8	5.8	5.8	59	-5.4	1	4	248	0.00	29.946 
00:40	5.8	5.8	5.8	60	-5.1	1	3	248	0.00	29.946 
00:45	5.8	5.8	5.8	60	-5.1	1	4	248	0.00	29.942 
00:50	5.8	5.8	5.8	60	-5.1	1	4	248	0.00	29.942 
00:55	5.8	5.8	5.8	60	-5.1	1	4	248	0.00	29.942 
01:00	5.6	5.6	5.6	60	-5.2	0	2	248	0.00	29.942 
01:05	5.4	5.4	5.4	61	-5.1	0	2	248	0.00	29.942 
01:10	5.4	5.4	5.4	61	-5.1	0	3	248	0.00	29.942 
01:15	5.4	5.4	5.4	61	-5.1	1	2	248	0.00	29.942 
01:20	5.2	5.2	5.2	61	-5.3	0	2	248	0.00	29.942 
01:25	5.2	5.2	5.2	61	-5.3	0	2	248	0.00	29.942 
01:30	5.2	5.2	5.2	62	-4.9	0	2	248	0.00	29.936 
01:35	5.0	5.0	5.0	62	-5.1	0	2	248	0.00	29.936 
01:40	5.0	5.0	5.0	62	-5.1	0	3	225	0.00	29.936 
01:45	4.8	4.8	4.8	62	-5.3	0	1	225	0.00	29.939 
01:50	4.8	4.8	4.8	62	-5.3	1	4	248	0.00	29.939 
01:55	4.8	4.8	4.8	62	-5.3	0	2	248	0.00	29.939 
02:00	4.8	4.8	4.8	62	-5.3	0	3	248	0.00	29.933 
02:05	4.8	4.8	4.8	62	-5.3	0	3	248	0.00	29.933 
02:10	4.8	4.8	4.8	62	-5.3	0	3	225	0.00	29.933 
02:15	4.8	4.8	4.8	62	-5.3	0	3	248	0.00	29.930 
02:20	4.7	4.7	4.7	62	-5.4	0	2	248	0.00	29.930 
02:25	4.7	4.7	4.7	63	-5.1	1	3	248	0.00	29.930 
02:30	4.7	4.7	4.7	63	-5.1	1	3	248	0.00	29.931 
02:35	4.7	4.7	4.7	63	-5.1	1	5	248	0.00	29.931 
02:40	4.7	4.7	4.7	64	-4.8	0	2	248	0.00	29.931 
02:45	4.5	4.5	4.5	64	-5.0	0	3	248	0.00	29.930 
02:50	4.5	4.5	4.5	64	-5.0	0	2	248	0.00	29.930 
02:55	4.5	4.5	4.5	64	-5.0	0	3	270	0.00	29.930 
03:00	4.3	4.3	4.3	64	-5.1	0	2	270	0.00	29.929 
03:05	4.3	4.3	4.3	64	-5.1	0	1	248	0.00	29.929 
03:10	4.3	4.3	4.3	64	-5.1	0	2	248	0.00	29.929 
03:15	4.3	4.3	4.3	65	-4.8	1	4	248	0.00	29.921 
03:20	4.5	4.5	4.5	64	-5.0	0	3	248	0.00	29.921 
03:25	4.5	4.5	4.5	64	-5.0	0	4	248	0.00	29.921 
03:30	4.5	4.5	4.5	64	-5.0	1	4	248	0.00	29.917 
03:35	4.5	4.5	4.5	64	-5.0	0	4	248	0.00	29.917 
03:40	4.3	4.3	4.3	64	-5.1	0	3	225	0.00	29.917 
03:45	4.3	4.3	4.3	64	-5.1	1	3	248	0.00	29.913 
03:50	4.3	4.3	4.3	64	-5.1	0	3	248	0.00	29.913 
03:55	4.1	4.1	4.1	65	-5.0	0	3	248	0.00	29.913 
04:00	4.1	4.1	4.1	65	-5.0	0	2	270	0.00	29.910 
04:05	3.9	3.9	3.9	65	-5.2	1	3	248	0.00	29.910 
04:10	3.9	3.9	3.9	65	-5.2	0	3	248	0.00	29.910 
04:15	3.9	3.9	3.9	65	-5.2	0	2	248	0.00	29.902 
04:20	3.9	3.9	3.9	65	-5.2	0	2	248	0.00	29.902 
04:25	3.7	3.7	3.7	65	-5.4	0	2	112	0.00	29.902 
04:30	3.9	3.9	3.9	65	-5.2	0	3	248	0.00	29.901 
04:35	3.9	3.9	3.9	65	-5.2	1	4	248	0.00	29.901 
04:40	4.1	4.1	4.1	65	-5.0	0	3	248	0.00	29.901 
04:45	4.1	4.1	4.1	65	-5.0	0	2	248	0.00	29.900 
04:50	4.1	4.1	4.1	65	-5.0	0	4	248	0.00	29.900 
04:55	4.3	4.3	4.3	65	-4.8	0	2	248	0.00	29.900 
05:00	4.3	4.3	4.3	65	-4.8	0	2	248	0.00	29.898 
05:05	4.1	4.1	4.1	65	-5.0	0	2	248	0.00	29.898 
05:10	4.1	4.1	4.1	65	-5.0	0	2	248	0.00	29.898 
05:15	4.1	4.1	4.1	66	-4.7	0	3	248	0.00	29.891 
05:20	4.3	4.3	4.3	66	-4.5	1	3	248	0.00	29.891 
05:25	4.3	4.3	4.3	66	-4.5	0	3	248	0.00	29.891 
05:30	4.3	4.3	4.3	66	-4.5	0	4	248	0.00	29.892 
05:35	4.3	4.3	4.3	66	-4.5	0	3	248	0.00	29.892 
05:40	4.3	4.3	4.3	66	-4.5	0	2	248	0.00	29.892 
05:45	4.3	4.3	4.3	66	-4.5	0	4	270	0.00	29.889 
05:50	4.3	4.3	4.3	66	-4.5	1	3	292	0.00	29.889 
05:55	4.3	4.3	4.3	66	-4.5	1	4	225	0.00	29.889 
06:00	4.5	4.5	4.5	66	-4.3	1	6	248	0.00	29.887 
06:05	4.7	4.7	4.7	65	-4.4	1	4	248	0.00	29.887 
06:10	4.7	4.7	4.7	65	-4.4	0	2	248	0.00	29.887 
06:15	4.7	4.7	4.7	65	-4.4	1	5	248	0.00	29.887 
06:20	4.8	4.8	4.8	65	-4.3	1	4	248	0.00	29.887 
06:25	5.0	5.0	5.0	65	-4.2	0	3	248	0.00	29.887 
06:30	5.0	5.0	5.0	65	-4.2	1	3	248	0.00	29.875 
06:35	5.0	5.0	5.0	65	-4.2	1	4	248	0.00	29.875 
06:40	5.0	5.0	5.0	65	-4.2	1	3	248	0.00	29.875 
06:45	5.2	5.2	5.2	64	-4.3	1	6	248	0.00	29.875 
06:50	5.2	5.2	5.2	64	-4.3	1	4	248	0.00	29.875 
06:55	5.4	5.4	5.4	64	-4.1	1	5	248	0.00	29.875 
07:00	5.6	5.6	5.6	64	-3.9	1	4	248	0.00	29.886 
07:05	5.4	5.4	5.4	64	-4.1	0	3	248	0.00	29.886 
07:10	5.4	5.4	5.4	64	-4.1	1	4	225	0.00	29.886 
07:15	5.4	5.4	5.4	64	-4.1	1	3	248	0.00	29.875 
07:20	5.6	5.6	5.6	64	-3.9	1	6	248	0.00	29.875 
07:25	5.6	5.6	5.6	63	-4.2	1	5	225	0.00	29.875 
07:30	5.6	5.6	5.6	64	-3.9	1	4	270	0.00	29.866 
07:35	5.8	5.8	5.8	63	-4.0	1	4	270	0.00	29.866 
07:40	5.8	5.8	5.8	63	-4.0	1	6	68	0.00	29.866 
07:45	6.0	6.0	6.0	63	-3.8	1	3	248	0.00	29.857 
07:50	6.1	6.1	6.1	63	-3.8	1	6	248	0.00	29.857 
07:55	6.3	6.3	6.3	63	-3.6	1	5	248	0.00	29.857 
08:00	6.5	6.5	6.5	63	-3.4	1	3	248	0.00	29.862 
08:05	6.9	6.9	6.9	62	-3.3	2	9	270	0.00	29.862 
08:10	7.0	7.0	7.0	62	-3.2	2	6	248	0.00	29.862 
08:15	7.4	7.4	7.4	62	-2.9	2	9	248	0.00	29.858 
08:20	7.7	7.7	7.7	62	-2.6	2	6	248	0.00	29.858 
08:25	8.1	8.1	8.1	62	-2.2	2	10	248	0.00	29.858 
08:30	8.3	8.3	8.3	62	-2.0	2	7	270	0.00	29.858 
08:35	8.4	8.4	8.4	63	-1.6	2	9	248	0.00	29.858 
08:40	8.6	8.6	8.6	65	-0.7	1	6	248	0.00	29.858 
08:45	8.8	8.8	8.8	64	-0.9	2	7	248	0.00	29.854 
08:50	9.2	9.2	9.2	62	-1.1	2	7	248	0.00	29.854 
08:55	9.7	9.7	9.7	63	-0.3	1	4	248	0.00	29.854 
09:00	10.0	2.7	10.0	62	-0.4	4	13	248	0.00	29.853 
09:05	10.4	10.4	10.4	63	0.3	3	9	248	0.00	29.853 
09:10	10.4	3.1	10.4	65	1.0	4	14	248	0.00	29.853 
09:15	10.4	10.4	10.4	64	0.7	3	9	270	0.00	29.853 
09:20	10.4	10.4	10.4	67	1.6	3	12	270	0.00	29.853 
09:25	10.4	3.1	10.4	70	2.6	4	15	248	0.00	29.853 
09:30	10.5	3.2	10.5	72	3.3	4	9	270	0.00	29.852 
09:35	10.7	2.1	10.7	73	3.8	5	11	270	0.00	29.852 
09:40	11.1	3.9	11.1	73	4.2	4	15	248	0.00	29.852 
09:45	11.4	4.3	11.4	73	4.5	4	13	248	0.00	29.854 
09:50	11.6	11.6	11.6	73	4.7	3	11	248	0.00	29.854 
09:55	11.9	4.9	11.9	72	4.6	4	10	270	0.00	29.854 
10:00	12.1	5.1	12.1	73	5.1	4	12	270	0.00	29.850 
10:05	12.4	4.1	12.4	72	5.1	5	17	270	0.00	29.850 
10:10	12.3	2.8	12.3	72	5.0	6	17	270	0.00	29.850 
10:15	12.4	5.4	12.4	73	5.4	4	11	248	0.00	29.852 
10:20	12.6	4.3	12.6	72	5.3	5	13	270	0.00	29.852 
10:25	12.9	12.9	12.9	72	5.6	3	10	270	0.00	29.852 
10:30	13.1	4.9	13.1	72	5.8	5	15	270	0.00	29.854 
10:35	13.5	13.5	13.5	73	6.5	3	9	270	0.00	29.854 
10:40	13.6	5.5	13.6	71	6.0	5	14	270	0.00	29.854 
10:45	13.6	5.5	13.6	70	5.7	5	14	248	0.00	29.854 
10:50	14.0	3.8	14.0	67	5.1	7	18	270	0.00	29.854 
10:55	14.3	4.2	14.3	65	4.7	7	20	248	0.00	29.854 
11:00	14.6	4.5	14.6	65	5.0	7	15	270	0.00	29.857 
11:05	14.9	7.0	14.9	64	5.0	5	12	270	0.00	29.857 
11:10	14.8	3.9	14.8	65	5.2	8	18	270	0.00	29.857 
11:15	14.6	2.9	14.6	63	4.3	9	18	248	0.00	29.866 
11:20	14.3	3.3	14.3	62	3.7	8	23	270	0.00	29.866 
11:25	14.3	3.3	14.3	63	4.0	8	24	270	0.00	29.866 
11:30	14.3	4.2	14.3	63	4.0	7	17	270	0.00	29.866 
11:35	14.4	4.3	14.4	65	4.8	7	17	270	0.00	29.866 
11:40	15.2	6.2	15.2	67	6.2	6	14	270	0.00	29.866 
11:45	15.4	5.5	15.4	67	6.4	7	17	270	0.00	29.872 
11:50	12.6	0.4	12.6	75	6.2	9	20	270	0.00	29.872 
11:55	11.9	2.3	11.9	72	4.6	6	23	270	0.00	29.872 
12:00	12.1	0.6	12.1	71	4.5	8	15	270	0.00	29.886 
12:05	12.3	0.0	12.3	58	0.4	9	23	270	0.00	29.886 
12:10	11.9	-1.9	11.9	50	-3.1	11	24	270	0.00	29.886 
12:15	12.3	1.8	12.3	46	-4.5	7	22	270	0.00	29.901 
12:20	12.4	-1.2	12.4	47	-3.9	11	26	270	0.00	29.901 
12:25	12.4	1.0	12.4	50	-2.7	8	22	270	0.00	29.901 
12:30	11.7	-0.7	11.7	46	-5.0	9	22	270	0.00	29.904 
12:35	11.2	0.4	11.2	49	-4.2	7	24	270	0.00	29.904 
12:40	11.7	-0.7	11.7	51	-2.9	9	23	270	0.00	29.904 
12:45	12.1	1.5	12.1	54	-1.3	7	18	270	0.00	29.915 
12:50	11.6	-0.8	11.6	58	-0.3	9	22	270	0.00	29.915 
12:55	11.1	-2.2	11.1	55	-1.9	10	23	270	0.00	29.915 
13:00	11.4	-0.2	11.4	55	-1.6	8	20	270	0.00	29.931 
13:05	11.6	-0.8	11.6	54	-1.8	9	23	270	0.00	29.931 
13:10	10.9	0.1	10.9	63	0.8	7	19	270	0.00	29.931 
13:15	10.7	2.1	10.7	71	3.2	5	17	270	0.00	29.938 
13:20	10.2	1.5	10.2	67	1.5	5	16	270	0.00	29.938 
13:25	9.5	0.6	9.5	71	2.0	5	12	270	0.00	29.938 
13:30	9.2	0.3	9.2	71	1.7	5	9	270	0.00	29.956 
13:35	9.3	0.4	9.3	74	2.7	5	11	270	0.00	29.956 
13:40	9.5	-0.6	9.5	69	1.4	6	17	270	0.00	29.956 
13:45	9.2	-0.9	9.2	67	0.5	6	15	270	0.00	29.965 
13:50	9.5	2.1	9.5	69	1.4	4	11	270	0.00	29.965 
13:55	10.2	1.5	10.2	62	-0.2	5	15	270	0.00	29.965 
14:00	9.7	-1.4	9.7	67	1.0	7	20	270	0.00	29.978 
14:05	9.9	-1.1	9.9	65	0.5	7	15	270	0.00	29.978 
14:10	10.5	-1.3	10.5	57	-1.7	8	23	270	0.00	29.978 
14:15	10.2	0.3	10.2	59	-1.2	6	22	270	0.00	29.980 
14:20	10.2	2.9	10.2	60	-0.9	4	9	270	0.00	29.980 
14:25	10.0	-1.0	10.0	62	-0.4	7	18	270	0.00	29.980 
14:30	10.2	1.5	10.2	61	-0.5	5	12	270	0.00	29.988 
14:35	10.4	-1.5	10.4	57	-1.8	8	16	270	0.00	29.988 
14:40	10.7	-1.1	10.7	54	-2.6	8	17	270	0.00	29.988 
14:45	10.5	1.8	10.5	52	-3.6	5	14	270	0.00	29.996 
14:50	10.0	1.2	10.0	55	-2.9	5	12	270	0.00	29.996 
14:55	10.2	-2.5	10.2	48	-5.5	9	19	270	0.00	29.996 
15:00	10.4	-0.5	10.4	53	-3.3	7	19	270	0.00	30.003 
15:05	10.2	-0.8	10.2	54	-3.1	7	20	270	0.00	30.003 
15:10	10.2	0.3	10.2	52	-3.9	6	20	270	0.00	30.003 
15:15	9.7	-2.3	9.7	55	-3.2	8	25	270	0.00	30.009 
15:20	9.7	-0.3	9.7	55	-3.2	6	21	270	0.00	30.009 
15:25	9.2	-2.0	9.2	56	-3.3	7	17	270	0.00	30.009 
15:30	9.7	-2.3	9.7	55	-3.2	8	18	270	0.00	30.018 
15:35	9.9	-1.1	9.9	51	-4.6	7	18	270	0.00	30.018 
15:40	9.2	-2.0	9.2	52	-4.8	7	18	270	0.00	30.018 
15:45	9.2	0.3	9.2	54	-4.0	5	13	270	0.00	30.029 
15:50	9.7	-0.3	9.7	51	-4.8	6	19	270	0.00	30.029 
15:55	9.9	-1.1	9.9	49	-5.4	7	17	270	0.00	30.029 
16:00	10.0	-1.9	10.0	45	-7.1	8	23	270	0.00	30.034 
16:05	10.2	-0.8	10.2	48	-5.5	7	22	270	0.00	30.034 
16:10	9.9	-0.1	9.9	49	-5.4	6	12	270	0.00	30.034 
16:15	9.7	-1.4	9.7	48	-6.0	7	18	270	0.00	30.048 
16:20	9.0	-2.2	9.0	51	-5.4	7	19	270	0.00	30.048 
16:25	9.3	0.4	9.3	52	-4.7	5	11	270	0.00	30.048 
16:30	9.3	-1.9	9.3	50	-5.5	7	16	270	0.00	30.061 
16:35	9.2	-0.9	9.2	48	-6.5	6	18	270	0.00	30.061 
16:40	9.2	-2.0	9.2	48	-6.5	7	17	270	0.00	30.061 
16:45	9.2	1.7	9.2	48	-6.5	4	11	270	0.00	30.073 
16:50	8.6	-2.7	8.6	48	-7.0	7	16	270	0.00	30.073 
16:55	8.4	-0.6	8.4	50	-6.4	5	15	270	0.00	30.073 
17:00	8.6	-0.4	8.6	49	-6.6	5	13	270	0.00	30.080 
17:05	8.6	-3.6	8.6	48	-7.0	8	18	270	0.00	30.080 
17:10	8.6	-1.6	8.6	47	-7.5	6	23	270	0.00	30.080 
17:15	8.6	-1.6	8.6	48	-7.0	6	14	270	0.00	30.081 
17:20	8.4	-1.9	8.4	48	-7.2	6	19	270	0.00	30.081 
17:25	8.1	-5.1	8.1	48	-7.5	9	23	270	0.00	30.081 
17:30	7.9	-3.5	7.9	49	-7.2	7	20	270	0.00	30.088 
17:35	7.7	-3.8	7.7	48	-7.9	7	17	270	0.00	30.088 
17:40	7.6	7.6	7.6	50	-7.1	3	9	270	0.00	30.088 
17:45	7.6	-2.8	7.6	48	-7.9	6	16	270	0.00	30.095 
17:50	7.4	-0.3	7.4	49	-7.7	4	15	270	0.00	30.095 
17:55	7.2	-3.3	7.2	49	-7.9	6	15	270	0.00	30.095 
18:00	7.2	-3.3	7.2	49	-7.9	6	18	270	0.00	30.097 
18:05	7.0	7.0	7.0	50	-7.7	3	9	270	0.00	30.097 
18:10	6.9	-2.4	6.9	50	-7.8	5	11	270	0.00	30.097 
18:15	6.9	-3.7	6.9	50	-7.8	6	18	270	0.00	30.101 
18:20	6.7	-1.1	6.7	50	-7.9	4	14	270	0.00	30.101 
18:25	6.7	-2.6	6.7	50	-7.9	5	16	270	0.00	30.101 
18:30	6.5	-1.4	6.5	51	-7.7	4	12	270	0.00	30.111 
18:35	6.5	-1.4	6.5	51	-7.7	4	10	270	0.00	30.111 
18:40	6.3	6.3	6.3	52	-7.5	2	5	270	0.00	30.111 
18:45	6.1	6.1	6.1	52	-7.7	3	10	270	0.00	30.120 
18:50	6.1	-1.8	6.1	52	-7.7	4	12	270	0.00	30.120 
18:55	6.1	6.1	6.1	53	-7.3	2	7	270	0.00	30.120 
19:00	6.0	6.0	6.0	53	-7.4	2	9	270	0.00	30.126 
19:05	6.0	-2.0	6.0	53	-7.4	4	17	270	0.00	30.126 
19:10	6.0	-2.0	6.0	53	-7.4	4	13	248	0.00	30.126 
19:15	5.8	5.8	5.8	53	-7.6	3	8	270	0.00	30.133 
19:20	5.8	5.8	5.8	53	-7.6	3	12	270	0.00	30.133 
19:25	5.8	5.8	5.8	53	-7.6	3	12	270	0.00	30.133 
19:30	5.6	5.6	5.6	52	-8.2	3	10	270	0.00	30.140 
19:35	5.6	5.6	5.6	53	-7.8	3	10	270	0.00	30.140 
19:40	5.4	5.4	5.4	53	-8.0	2	10	270	0.00	30.140 
19:45	5.4	-2.6	5.4	53	-8.0	4	12	270	0.00	30.143 
19:50	5.4	-2.6	5.4	54	-7.6	4	13	270	0.00	30.143 
19:55	5.4	-2.6	5.4	54	-7.6	4	12	270	0.00	30.143 
20:00	5.4	-4.2	5.4	54	-7.6	5	14	270	0.00	30.144 
20:05	5.2	-2.9	5.2	54	-7.8	4	12	270	0.00	30.144 
20:10	5.0	5.0	5.0	55	-7.6	2	10	270	0.00	30.144 
20:15	5.0	5.0	5.0	55	-7.6	3	11	270	0.00	30.149 
20:20	5.0	5.0	5.0	55	-7.6	2	9	270	0.00	30.149 
20:25	5.0	-3.1	5.0	55	-7.6	4	12	270	0.00	30.149 
20:30	4.8	4.8	4.8	55	-7.8	3	11	270	0.00	30.156 
20:35	4.8	-3.3	4.8	54	-8.2	4	15	270	0.00	30.156 
20:40	4.8	-4.9	4.8	53	-8.5	5	17	270	0.00	30.156 
20:45	4.8	-3.3	4.8	52	-8.9	4	13	270	0.00	30.159 
20:50	4.7	-3.5	4.7	52	-9.0	4	13	270	0.00	30.159 
20:55	4.7	-3.5	4.7	51	-9.4	4	9	270	0.00	30.159 
21:00	4.7	4.7	4.7	51	-9.4	2	6	270	0.00	30.164 
21:05	4.5	4.5	4.5	52	-9.2	3	12	270	0.00	30.164 
21:10	4.3	4.3	4.3	52	-9.4	3	14	270	0.00	30.164 
21:15	4.3	4.3	4.3	53	-9.0	2	6	270	0.00	30.164 
21:20	4.1	4.1	4.1	52	-9.6	2	7	270	0.00	30.164 
21:25	3.9	3.9	3.9	53	-9.4	3	11	270	0.00	30.164 
21:30	3.9	3.9	3.9	52	-9.8	3	12	270	0.00	30.169 
21:35	3.9	3.9	3.9	52	-9.8	2	11	270	0.00	30.169 
21:40	3.7	3.7	3.7	51	-10.3	3	6	270	0.00	30.169 
21:45	3.7	3.7	3.7	51	-10.3	3	9	270	0.00	30.171 
21:50	3.5	3.5	3.5	52	-10.1	3	11	270	0.00	30.171 
21:55	3.5	3.5	3.5	52	-10.1	3	10	270	0.00	30.171 
22:00	3.5	3.5	3.5	52	-10.1	2	7	270	0.00	30.172 
22:05	3.4	3.4	3.4	53	-9.8	2	6	270	0.00	30.172 
22:10	3.4	3.4	3.4	53	-9.8	2	7	270	0.00	30.172 
22:15	3.2	3.2	3.2	54	-9.7	2	5	270	0.00	30.175 
22:20	3.2	3.2	3.2	54	-9.7	3	7	270	0.00	30.175 
22:25	3.0	3.0	3.0	54	-9.8	2	5	270	0.00	30.175 
22:30	3.0	3.0	3.0	54	-9.8	3	10	270	0.00	30.179 
22:35	2.8	2.8	2.8	54	-10.0	2	10	270	0.00	30.179 
22:40	2.8	2.8	2.8	54	-10.0	3	9	270	0.00	30.179 
22:45	2.6	2.6	2.6	54	-10.2	2	6	270	0.00	30.179 
22:50	2.6	2.6	2.6	55	-9.8	1	5	270	0.00	30.179 
22:55	2.4	2.4	2.4	56	-9.7	2	7	270	0.00	30.179 
23:00	2.4	2.4	2.4	55	-10.0	3	10	270	0.00	30.183 
23:05	2.4	2.4	2.4	56	-9.7	2	5	270	0.00	30.183 
23:10	2.2	2.2	2.2	56	-9.9	2	4	270	0.00	30.183 
23:15	2.2	2.2	2.2	57	-9.5	2	6	270	0.00	30.186 
23:20	2.0	2.0	2.0	57	-9.7	2	5	270	0.00	30.186 
23:25	2.0	2.0	2.0	57	-9.7	2	5	270	0.00	30.186 
23:30	1.8	1.8	1.8	57	-9.9	1	4	270	0.00	30.186 
23:35	1.8	1.8	1.8	57	-9.9	1	4	270	0.00	30.186 
23:40	1.8	1.8	1.8	58	-9.5	1	3	270	0.00	30.186 
23:45	1.7	1.7	1.7	58	-9.6	1	4	270	0.00	30.190 
23:50	1.5	1.5	1.5	58	-9.8	1	3	270	0.00	30.190 
23:55	1.5	1.5	1.5	58	-9.8	1	5	270	0.00	30.190 

CoCoRaHS
IN-AL-39
A2 Web Hosting
Creative Commons License
GoDaddy
Look for:

loaded 2017-12-12 14:34:34 • last modified 2010-11-18 10:43:29
Privacy PolicyDisclaimer
• wx.awcolley.com is powered by PmWiki v.2002016 •
• all content (unless otherwise noted) © 2017 A W Colley